Time;durP1;ratioP1;P1;durP2;ratioP2;P2;SDS_P1;SDS_P2;PMS_P1;PMS_P2;Temp;Humidity;BMP_temperature;BMP_pressure;BME280_temperature;BME280_humidity;BME280_pressure;Samples;Min_cycle;Max_cycle;Signal;HPM_P1;HPM_P2
2022/03/09 00:02:17;;;;;;;5.70;5.10;;;19.20;24.40;;;;;;5150337;27;46851;-14
2022/03/09 00:04:44;;;;;;;6.43;4.97;;;19.20;24.50;;;;;;5150059;27;47322;-14
2022/03/09 00:07:11;;;;;;;7.28;5.00;;;19.20;24.50;;;;;;5150144;27;47063;-14
2022/03/09 00:09:37;;;;;;;5.95;5.30;;;19.10;24.40;;;;;;5149486;27;46844;-13
2022/03/09 00:12:06;;;;;;;6.38;5.55;;;19.10;24.50;;;;;;5150400;27;46734;-14
2022/03/09 00:14:33;;;;;;;6.57;5.10;;;19.10;24.40;;;;;;5150230;27;46982;-14
2022/03/09 00:17:00;;;;;;;6.15;5.20;;;19.10;24.50;;;;;;5150057;27;48861;-14
2022/03/09 00:19:27;;;;;;;6.07;5.47;;;19.10;24.50;;;;;;5149941;27;46946;-14
2022/03/09 00:21:53;;;;;;;6.13;4.95;;;19.10;24.50;;;;;;5150158;27;46910;-15
2022/03/09 00:24:20;;;;;;;5.95;5.18;;;19.10;24.40;;;;;;5149510;27;47268;-14
2022/03/09 00:26:47;;;;;;;6.25;5.20;;;19.10;24.40;;;;;;5149992;27;48099;-14
2022/03/09 00:29:15;;;;;;;6.00;5.40;;;19.10;24.40;;;;;;5149795;27;47178;-14
2022/03/09 00:31:42;;;;;;;5.93;4.97;;;19.10;24.40;;;;;;5149960;27;46788;-14
2022/03/09 00:34:08;;;;;;;6.43;5.55;;;19.10;24.50;;;;;;5149542;27;46909;-14
2022/03/09 00:36:35;;;;;;;6.95;4.93;;;19.10;24.50;;;;;;5149666;27;48218;-14
2022/03/09 00:39:02;;;;;;;5.78;5.18;;;19.00;24.40;;;;;;5149614;27;46909;-14
2022/03/09 00:41:28;;;;;;;6.57;5.50;;;19.00;24.50;;;;;;5149858;27;47009;-14
2022/03/09 00:43:55;;;;;;;7.85;5.65;;;19.00;24.40;;;;;;5149530;27;46903;-14
2022/03/09 00:46:23;;;;;;;6.38;5.55;;;19.00;24.40;;;;;;5149300;27;46771;-14
2022/03/09 00:48:50;;;;;;;6.00;5.40;;;19.00;24.40;;;;;;5149513;27;47504;-13
2022/03/09 00:51:16;;;;;;;6.25;5.20;;;19.00;24.40;;;;;;5149612;27;46978;-14
2022/03/09 00:53:43;;;;;;;7.18;5.60;;;19.00;24.40;;;;;;5149607;27;46889;-14
2022/03/09 00:56:10;;;;;;;6.40;5.20;;;19.00;24.40;;;;;;5149305;27;49031;-14
2022/03/09 00:58:36;;;;;;;6.55;5.72;;;19.00;24.50;;;;;;5149442;27;47475;-14
2022/03/09 01:01:03;;;;;;;5.95;5.35;;;19.00;24.50;;;;;;5149299;27;46914;-13
2022/03/09 01:03:31;;;;;;;6.05;5.45;;;19.00;24.40;;;;;;5149499;27;46893;-13
2022/03/09 01:05:58;;;;;;;6.28;5.13;;;19.00;24.40;;;;;;5148809;27;47904;-13
2022/03/09 01:08:24;;;;;;;6.05;5.25;;;18.90;24.40;;;;;;5149248;27;47627;-14
2022/03/09 01:10:51;;;;;;;6.88;6.03;;;18.90;24.40;;;;;;5148769;27;46805;-13
2022/03/09 01:13:18;;;;;;;7.28;5.88;;;18.90;24.40;;;;;;5149067;27;46832;-14
2022/03/09 01:15:44;;;;;;;5.90;5.25;;;18.90;24.40;;;;;;5148672;27;48053;-14
2022/03/09 01:18:12;;;;;;;6.78;5.45;;;18.90;24.40;;;;;;5148891;27;46981;-15
2022/03/09 01:20:40;;;;;;;5.40;4.90;;;18.90;24.40;;;;;;5148747;27;47042;-14
2022/03/09 01:23:06;;;;;;;7.55;5.78;;;18.90;24.50;;;;;;5149253;27;47288;-14
2022/03/09 01:25:33;;;;;;;5.97;5.32;;;18.90;24.50;;;;;;5148783;27;47925;-14
2022/03/09 01:28:00;;;;;;;7.35;5.95;;;18.90;24.40;;;;;;5148904;27;46848;-13
2022/03/09 01:30:27;;;;;;;6.10;5.38;;;18.90;24.40;;;;;;5148937;27;47087;-13
2022/03/09 01:32:53;;;;;;;6.18;5.47;;;18.90;24.50;;;;;;5149050;27;46861;-14
2022/03/09 01:35:20;;;;;;;6.18;5.32;;;18.90;24.40;;;;;;5147801;27;48789;-14
2022/03/09 01:37:48;;;;;;;5.57;5.00;;;18.80;24.40;;;;;;5148485;27;46755;-14
2022/03/09 01:40:15;;;;;;;7.28;5.53;;;18.80;24.50;;;;;;5148462;27;47198;-14
2022/03/09 01:42:42;;;;;;;7.35;6.07;;;18.80;24.40;;;;;;5149109;27;47203;-13
2022/03/09 01:45:10;;;;;;;5.63;5.03;;;18.80;24.50;;;;;;5148206;27;47849;-14
2022/03/09 01:47:37;;;;;;;7.05;5.43;;;18.80;24.40;;;;;;5148817;27;46905;-14
2022/03/09 01:50:04;;;;;;;5.28;4.78;;;18.80;24.40;;;;;;5148084;27;46801;-13
2022/03/09 01:52:31;;;;;;;5.80;5.18;;;18.80;24.40;;;;;;5148702;27;46891;-13
2022/03/09 01:54:59;;;;;;;6.90;4.90;;;18.80;24.40;;;;;;5148008;27;48761;-13
2022/03/09 01:57:25;;;;;;;8.02;5.90;;;18.80;24.40;;;;;;5148433;27;47428;-14
2022/03/09 01:59:52;;;;;;;5.88;5.32;;;18.80;24.40;;;;;;5148435;27;46975;-13
2022/03/09 02:02:19;;;;;;;5.70;5.10;;;18.70;24.30;;;;;;5148538;27;47267;-14
2022/03/09 02:04:46;;;;;;;6.30;4.93;;;18.80;24.40;;;;;;5148049;27;48108;-14
2022/03/09 02:07:13;;;;;;;6.45;4.82;;;18.80;24.50;;;;;;5148268;27;46903;-14
2022/03/09 02:09:41;;;;;;;5.82;5.22;;;18.80;24.40;;;;;;5147470;27;47216;-13
2022/03/09 02:12:11;;;;;;;5.18;4.63;;;18.70;24.30;;;;;;5148409;27;46914;-15
2022/03/09 02:14:38;;;;;;;5.88;5.22;;;18.80;24.40;;;;;;5147680;27;48379;-13
2022/03/09 02:17:07;;;;;;;5.40;4.85;;;18.80;24.40;;;;;;5147815;27;47478;-14
2022/03/09 02:19:34;;;;;;;5.88;4.97;;;18.80;24.40;;;;;;5147637;27;46879;-14
2022/03/09 02:22:05;;;;;;;5.38;4.88;;;18.80;24.40;;;;;;5148239;27;46530;-14
2022/03/09 02:24:34;;;;;;;6.03;4.57;;;18.70;24.30;;;;;;5147648;27;47937;-14
2022/03/09 02:27:00;;;;;;;5.22;4.72;;;18.70;24.30;;;;;;5147699;27;46906;-13
2022/03/09 02:29:27;;;;;;;5.45;4.95;;;18.70;24.40;;;;;;5148060;27;47129;-14
2022/03/09 02:31:54;;;;;;;5.63;4.80;;;18.70;24.40;;;;;;5148203;27;46858;-14
2022/03/09 02:34:21;;;;;;;5.95;4.70;;;18.70;24.30;;;;;;5147261;27;49058;-14
2022/03/09 02:36:48;;;;;;;5.88;4.97;;;18.70;24.30;;;;;;5147542;27;46916;-14
2022/03/09 02:39:15;;;;;;;5.38;4.88;;;18.70;24.40;;;;;;5147634;27;46960;-14
2022/03/09 02:41:43;;;;;;;6.45;5.18;;;18.70;24.40;;;;;;5148304;27;46998;-14
2022/03/09 02:44:09;;;;;;;5.00;4.50;;;18.70;24.40;;;;;;5147515;27;48903;-14
2022/03/09 02:46:36;;;;;;;5.53;4.90;;;18.70;24.40;;;;;;5147685;27;46933;-14
2022/03/09 02:49:03;;;;;;;5.93;4.82;;;18.70;24.30;;;;;;5147338;27;46742;-14
2022/03/09 02:51:29;;;;;;;5.57;4.88;;;18.70;24.40;;;;;;5147648;27;47192;-14
2022/03/09 02:53:56;;;;;;;5.22;4.72;;;18.70;24.40;;;;;;5147277;27;46917;-14
2022/03/09 02:56:23;;;;;;;5.85;4.75;;;18.70;24.40;;;;;;5147746;27;46935;-14
2022/03/09 02:58:51;;;;;;;4.93;4.43;;;18.60;24.30;;;;;;5147555;27;47000;-14
2022/03/09 03:01:18;;;;;;;5.43;4.93;;;18.60;24.40;;;;;;5148098;27;47484;-14
2022/03/09 03:03:45;;;;;;;5.15;4.65;;;18.60;24.40;;;;;;5147087;27;46866;-14
2022/03/09 03:06:11;;;;;;;5.50;4.90;;;18.60;24.40;;;;;;5147091;27;47045;-14
2022/03/09 03:08:38;;;;;;;5.82;5.00;;;18.60;24.40;;;;;;5147623;27;46883;-13
2022/03/09 03:11:05;;;;;;;5.68;4.60;;;18.60;24.40;;;;;;5147136;27;46915;-14
2022/03/09 03:13:32;;;;;;;5.90;4.57;;;18.60;24.40;;;;;;5147068;27;48834;-14
2022/03/09 03:16:00;;;;;;;4.95;4.45;;;18.50;24.40;;;;;;5147229;27;47316;-13
2022/03/09 03:18:27;;;;;;;5.25;4.75;;;18.60;24.50;;;;;;5147331;27;46804;-14
2022/03/09 03:20:54;;;;;;;6.88;4.93;;;18.60;24.40;;;;;;5147174;27;47375;-14
2022/03/09 03:23:22;;;;;;;7.28;5.30;;;18.60;24.50;;;;;;5146919;27;48755;-14
2022/03/09 03:25:49;;;;;;;6.22;5.63;;;18.60;24.50;;;;;;5146740;27;47445;-13
2022/03/09 03:28:15;;;;;;;7.45;5.20;;;18.60;24.50;;;;;;5147192;27;46788;-14
2022/03/09 03:30:42;;;;;;;6.78;5.60;;;18.60;24.50;;;;;;5147186;27;47267;-14
2022/03/09 03:33:10;;;;;;;6.82;5.82;;;18.50;24.40;;;;;;5146775;27;48092;-14
2022/03/09 03:35:37;;;;;;;6.45;5.35;;;18.60;24.50;;;;;;5146992;27;46864;-14
2022/03/09 03:38:03;;;;;;;6.93;5.20;;;18.60;24.50;;;;;;5147362;27;46924;-14
2022/03/09 03:40:30;;;;;;;5.43;4.63;;;18.60;24.50;;;;;;5146634;27;46836;-14
2022/03/09 03:42:57;;;;;;;8.57;5.22;;;18.50;24.40;;;;;;5146807;27;49114;-14
2022/03/09 03:45:24;;;;;;;6.28;5.18;;;18.50;24.40;;;;;;5146822;27;47136;-14
2022/03/09 03:47:50;;;;;;;7.38;5.18;;;18.50;24.40;;;;;;5146663;27;46829;-14
2022/03/09 03:50:18;;;;;;;6.35;5.25;;;18.50;24.40;;;;;;5146733;27;46859;-13
2022/03/09 03:52:45;;;;;;;6.15;5.47;;;18.50;24.40;;;;;;5146597;27;47868;-14
2022/03/09 03:55:12;;;;;;;6.38;5.60;;;18.50;24.40;;;;;;5146790;27;46918;-14
2022/03/09 03:57:39;;;;;;;7.00;5.85;;;18.50;24.40;;;;;;5146666;27;46926;-13
2022/03/09 04:00:06;;;;;;;6.30;5.28;;;18.50;24.50;;;;;;5149940;27;46902;-14
2022/03/09 04:02:33;;;;;;;6.35;5.30;;;18.50;24.50;;;;;;5150256;27;47963;-14
2022/03/09 04:05:00;;;;;;;6.10;5.28;;;18.50;24.40;;;;;;5149922;27;46926;-14
2022/03/09 04:07:28;;;;;;;7.82;5.65;;;18.50;24.40;;;;;;5150288;27;46739;-13
2022/03/09 04:09:54;;;;;;;6.82;5.63;;;18.50;24.40;;;;;;5149759;27;46722;-14
2022/03/09 04:12:23;;;;;;;7.50;5.47;;;18.50;24.50;;;;;;5150017;27;48835;-14
2022/03/09 04:14:50;;;;;;;5.28;4.78;;;18.50;24.50;;;;;;5149895;27;46902;-14
2022/03/09 04:17:18;;;;;;;6.22;5.45;;;18.50;24.40;;;;;;5149853;27;46874;-14
2022/03/09 04:19:45;;;;;;;5.75;5.15;;;18.50;24.30;;;;;;5149832;27;46863;-14
2022/03/09 04:22:11;;;;;;;7.00;5.40;;;18.40;24.40;;;;;;5149585;27;48108;-14
2022/03/09 04:24:39;;;;;;;6.28;5.10;;;18.40;24.40;;;;;;5149972;27;47471;-14
2022/03/09 04:27:06;;;;;;;6.72;5.15;;;18.40;24.40;;;;;;5149696;27;46794;-13
2022/03/09 04:29:33;;;;;;;6.38;5.32;;;18.40;24.40;;;;;;5149994;27;46897;-14
2022/03/09 04:32:00;;;;;;;8.88;5.47;;;18.40;24.40;;;;;;5149387;27;48790;-13
2022/03/09 04:34:26;;;;;;;6.43;5.25;;;18.40;24.40;;;;;;5149073;27;46820;-13
2022/03/09 04:36:53;;;;;;;6.82;5.35;;;18.40;24.40;;;;;;5149763;27;46976;-14
2022/03/09 04:39:20;;;;;;;7.03;5.10;;;18.40;24.40;;;;;;5149279;27;46883;-14
2022/03/09 04:41:48;;;;;;;6.40;5.18;;;18.40;24.40;;;;;;5149581;27;48049;-14
2022/03/09 04:44:15;;;;;;;5.70;5.07;;;18.40;24.50;;;;;;5149215;27;47073;-15
2022/03/09 04:46:41;;;;;;;6.32;5.40;;;18.40;24.50;;;;;;5149687;27;46798;-14
2022/03/09 04:49:08;;;;;;;7.72;5.50;;;18.40;24.50;;;;;;5149449;27;47171;-14
2022/03/09 04:51:36;;;;;;;7.05;5.55;;;18.40;24.50;;;;;;5149544;27;47789;-14
2022/03/09 04:54:03;;;;;;;5.18;4.68;;;18.40;24.50;;;;;;5149069;27;46956;-14
2022/03/09 04:56:30;;;;;;;7.45;4.95;;;18.30;24.50;;;;;;5149626;27;46915;-14
2022/03/09 04:58:58;;;;;;;6.40;5.45;;;18.30;24.50;;;;;;5149739;27;47283;-14
2022/03/09 05:01:26;;;;;;;6.18;5.20;;;18.30;24.50;;;;;;5149028;27;48090;-16
2022/03/09 05:03:53;;;;;;;5.60;4.95;;;18.30;24.40;;;;;;5149544;27;47078;-15
2022/03/09 05:06:20;;;;;;;6.05;5.47;;;18.30;24.50;;;;;;5149087;27;46833;-15
2022/03/09 05:08:47;;;;;;;8.63;5.47;;;18.30;24.50;;;;;;5149373;27;46904;-16
2022/03/09 05:11:13;;;;;;;6.00;5.18;;;18.30;24.50;;;;;;5147460;27;47928;-15
2022/03/09 05:13:40;;;;;;;6.78;5.05;;;18.30;24.40;;;;;;5148906;27;46803;-15
2022/03/09 05:16:08;;;;;;;5.65;5.03;;;18.30;24.50;;;;;;5149258;27;46848;-15
2022/03/09 05:18:37;;;;;;;5.57;4.88;;;18.30;24.50;;;;;;5149401;27;47307;-14
2022/03/09 05:21:04;;;;;;;6.72;5.20;;;18.30;24.50;;;;;;5148772;27;47928;-15
2022/03/09 05:23:30;;;;;;;5.70;5.10;;;18.30;24.40;;;;;;5148698;27;47218;-15
2022/03/09 05:25:57;;;;;;;6.07;4.82;;;18.20;24.40;;;;;;5148696;27;47253;-16
2022/03/09 05:28:24;;;;;;;5.78;5.18;;;18.30;24.50;;;;;;5149255;27;46903;-15
2022/03/09 05:30:50;;;;;;;6.88;5.72;;;18.30;24.50;;;;;;5148318;27;49065;-15
2022/03/09 05:33:18;;;;;;;5.93;5.32;;;18.20;24.50;;;;;;5148767;27;46920;-15
2022/03/09 05:35:45;;;;;;;6.65;5.38;;;18.20;24.40;;;;;;5148821;27;46910;-15
2022/03/09 05:38:12;;;;;;;6.35;5.28;;;18.20;24.40;;;;;;5148876;27;47286;-15
2022/03/09 05:40:39;;;;;;;5.53;4.63;;;18.20;24.40;;;;;;5148352;27;46877;-15
2022/03/09 05:43:05;;;;;;;5.50;5.00;;;18.20;24.50;;;;;;5148638;27;47108;-15
2022/03/09 05:45:32;;;;;;;6.05;5.00;;;18.20;24.40;;;;;;5148485;27;46976;-15
2022/03/09 05:47:59;;;;;;;7.47;5.45;;;18.20;24.40;;;;;;5148818;27;47063;-15
2022/03/09 05:50:27;;;;;;;6.68;5.30;;;18.20;24.40;;;;;;5148214;27;48896;-16
2022/03/09 05:52:53;;;;;;;5.93;5.22;;;18.20;24.40;;;;;;5148592;27;46946;-15
2022/03/09 05:55:21;;;;;;;6.07;5.00;;;18.20;24.40;;;;;;5148419;27;47022;-15
2022/03/09 05:57:47;;;;;;;5.75;5.05;;;18.20;24.40;;;;;;5148434;27;46903;-15
2022/03/09 06:00:15;;;;;;;5.78;5.00;;;18.20;24.40;;;;;;5148071;27;49194;-15
2022/03/09 06:02:41;;;;;;;5.70;5.07;;;18.20;24.40;;;;;;5148625;27;46917;-15
2022/03/09 06:05:09;;;;;;;6.30;5.40;;;18.20;24.40;;;;;;5148662;27;46790;-15
2022/03/09 06:07:37;;;;;;;5.40;4.90;;;18.20;24.50;;;;;;5148448;27;46938;-15
2022/03/09 06:10:05;;;;;;;5.43;4.93;;;18.20;24.40;;;;;;5147480;27;46938;-15
2022/03/09 06:12:31;;;;;;;5.47;4.88;;;18.20;24.40;;;;;;5148429;27;46863;-15
2022/03/09 06:14:58;;;;;;;6.10;4.80;;;18.20;24.40;;;;;;5147835;27;47083;-15
2022/03/09 06:17:25;;;;;;;6.15;4.82;;;18.20;24.50;;;;;;5148418;27;46934;-15
2022/03/09 06:19:52;;;;;;;6.57;4.95;;;18.20;24.50;;;;;;5147439;27;47890;-16
2022/03/09 06:22:18;;;;;;;6.53;4.93;;;18.20;24.40;;;;;;5147828;27;46984;-16
2022/03/09 06:24:46;;;;;;;6.43;5.13;;;18.20;24.40;;;;;;5147859;27;46820;-15
2022/03/09 06:27:13;;;;;;;6.30;5.28;;;18.20;24.50;;;;;;5148110;27;46890;-16
2022/03/09 06:29:40;;;;;;;5.32;4.82;;;18.20;24.50;;;;;;5147449;27;46938;-15
2022/03/09 06:32:07;;;;;;;5.13;4.63;;;18.20;24.40;;;;;;5147563;27;47132;-15
2022/03/09 06:34:34;;;;;;;6.43;4.90;;;18.20;24.40;;;;;;5147594;27;47061;-15
2022/03/09 06:37:00;;;;;;;6.45;5.18;;;18.20;24.40;;;;;;5147754;27;46884;-15
2022/03/09 06:39:27;;;;;;;5.65;4.45;;;18.20;24.40;;;;;;5147829;27;48809;-16
2022/03/09 06:41:55;;;;;;;5.38;4.88;;;18.20;24.50;;;;;;5147695;27;47042;-21
2022/03/09 06:44:23;;;;;;;5.60;4.75;;;18.20;24.50;;;;;;5147372;27;46993;-21
2022/03/09 06:46:49;;;;;;;5.65;4.97;;;18.20;24.50;;;;;;5147393;27;47130;-22
2022/03/09 06:49:16;;;;;;;6.25;4.85;;;18.20;24.50;;;;;;5146595;27;47862;-21
2022/03/09 06:51:43;;;;;;;5.65;5.00;;;18.20;25.00;;;;;;5146453;27;46801;-21
2022/03/09 06:54:09;;;;;;;5.30;4.80;;;18.20;24.50;;;;;;5147038;27;46954;-22
2022/03/09 06:56:37;;;;;;;5.55;4.75;;;18.20;24.50;;;;;;5148346;27;46849;-22
2022/03/09 06:59:06;;;;;;;5.43;4.93;;;18.20;24.40;;;;;;5146439;27;46970;-22
2022/03/09 07:01:32;;;;;;;7.25;4.80;;;18.20;24.50;;;;;;5163372;27;46861;-21
2022/03/09 07:03:59;;;;;;;5.18;4.53;;;18.20;24.50;;;;;;5168341;27;47017;-22
2022/03/09 07:06:26;;;;;;;6.32;5.35;;;18.20;24.50;;;;;;5167624;27;46933;-22
2022/03/09 07:08:52;;;;;;;6.13;4.32;;;18.20;24.50;;;;;;5164040;27;47214;-22
2022/03/09 07:11:19;;;;;;;4.95;4.55;;;18.20;24.50;;;;;;5140875;27;46945;-23
2022/03/09 07:13:46;;;;;;;6.43;4.90;;;18.20;24.40;;;;;;5146844;27;46927;-22
2022/03/09 07:16:14;;;;;;;5.53;4.93;;;18.30;24.50;;;;;;5147344;27;47261;-21
2022/03/09 07:18:41;;;;;;;5.28;4.78;;;18.30;24.50;;;;;;5147071;27;47929;-22
2022/03/09 07:21:08;;;;;;;5.22;4.70;;;18.30;24.50;;;;;;5146188;27;47022;-22
2022/03/09 07:23:34;;;;;;;6.35;4.45;;;18.30;24.50;;;;;;5146602;27;46953;-22
2022/03/09 07:26:02;;;;;;;5.57;5.07;;;18.30;24.50;;;;;;5146753;27;46904;-22
2022/03/09 07:28:29;;;;;;;6.45;5.28;;;18.30;24.50;;;;;;5146587;27;47825;-22
2022/03/09 07:30:55;;;;;;;5.85;4.85;;;18.30;24.50;;;;;;5146576;27;47215;-22
2022/03/09 07:33:24;;;;;;;5.68;4.85;;;18.30;24.50;;;;;;5147631;27;46901;-20
2022/03/09 07:35:51;;;;;;;5.97;5.32;;;18.30;24.50;;;;;;5150492;27;47117;-21
2022/03/09 07:38:18;;;;;;;5.82;4.57;;;18.30;24.50;;;;;;5150152;27;47070;-21
2022/03/09 07:40:45;;;;;;;8.18;5.30;;;18.30;24.50;;;;;;5149823;27;46800;-21
2022/03/09 07:43:11;;;;;;;6.30;4.97;;;18.30;24.50;;;;;;5150359;27;47010;-21
2022/03/09 07:45:38;;;;;;;5.55;4.88;;;18.30;24.50;;;;;;5150434;27;47310;-20
2022/03/09 07:48:05;;;;;;;5.63;4.68;;;18.30;24.50;;;;;;5150248;27;48232;-20
2022/03/09 07:50:33;;;;;;;6.07;4.75;;;18.30;24.50;;;;;;5150325;27;47261;-20
2022/03/09 07:53:00;;;;;;;6.50;5.28;;;18.30;24.50;;;;;;5150369;27;46849;-14
2022/03/09 07:55:27;;;;;;;5.57;4.70;;;18.30;24.50;;;;;;5149372;27;47045;-15
2022/03/09 07:57:53;;;;;;;5.75;4.45;;;18.30;24.50;;;;;;5149770;27;48811;-15
2022/03/09 08:00:20;;;;;;;6.47;4.60;;;18.30;24.50;;;;;;5150024;27;46967;-14
2022/03/09 08:02:47;;;;;;;6.35;5.05;;;18.40;24.50;;;;;;5150156;27;46850;-14
2022/03/09 08:05:14;;;;;;;4.93;4.40;;;18.40;24.50;;;;;;5149060;27;46925;-14
2022/03/09 08:07:42;;;;;;;5.18;4.68;;;18.40;24.50;;;;;;5149763;27;49092;-14
2022/03/09 08:10:09;;;;;;;5.15;4.43;;;18.40;24.60;;;;;;5149280;27;47032;-14
2022/03/09 08:12:36;;;;;;;6.78;4.60;;;18.30;24.50;;;;;;5150251;27;46903;-14
2022/03/09 08:15:03;;;;;;;6.10;4.95;;;18.40;24.50;;;;;;5149898;27;47109;-14
2022/03/09 08:17:30;;;;;;;5.25;4.75;;;18.40;24.50;;;;;;5149751;27;46805;-14
2022/03/09 08:19:57;;;;;;;6.63;5.05;;;18.40;24.50;;;;;;5149519;27;46940;-15
2022/03/09 08:22:24;;;;;;;5.32;4.50;;;18.40;24.60;;;;;;5149892;27;46887;-16
2022/03/09 08:24:52;;;;;;;6.00;5.13;;;18.40;24.50;;;;;;5149560;27;46935;-15
2022/03/09 08:27:19;;;;;;;5.97;5.03;;;18.40;24.60;;;;;;5149203;27;47163;-15
2022/03/09 08:29:46;;;;;;;5.28;4.78;;;18.40;24.60;;;;;;5149161;27;46999;-15
2022/03/09 08:32:12;;;;;;;5.70;4.75;;;18.50;24.50;;;;;;5149457;27;46967;-15
2022/03/09 08:34:39;;;;;;;5.88;4.57;;;18.40;24.60;;;;;;5149433;27;46961;-15
2022/03/09 08:37:06;;;;;;;4.57;4.18;;;18.50;24.70;;;;;;5149470;27;47878;-15
2022/03/09 08:39:32;;;;;;;5.20;4.70;;;18.50;24.70;;;;;;5149619;27;47008;-16
2022/03/09 08:42:01;;;;;;;5.43;4.60;;;18.50;24.60;;;;;;5149391;27;46911;-15
2022/03/09 08:44:27;;;;;;;6.32;4.70;;;18.50;24.60;;;;;;5147791;27;46927;-21
2022/03/09 08:46:54;;;;;;;5.40;4.68;;;18.50;24.70;;;;;;5148783;27;47090;-22
2022/03/09 08:49:21;;;;;;;5.15;4.32;;;18.40;24.70;;;;;;5148811;27;46844;-21
2022/03/09 08:51:47;;;;;;;5.85;4.80;;;18.50;24.70;;;;;;5149551;27;46791;-22
2022/03/09 08:54:14;;;;;;;5.53;4.55;;;18.50;24.70;;;;;;5148851;27;46831;-21
2022/03/09 08:56:41;;;;;;;6.70;5.18;;;18.60;24.70;;;;;;5146812;27;48740;-21
2022/03/09 08:59:09;;;;;;;5.45;4.68;;;18.50;24.70;;;;;;5147211;27;46922;-21
2022/03/09 09:01:36;;;;;;;5.82;5.22;;;18.50;24.70;;;;;;5147842;27;48059;-21
2022/03/09 09:04:03;;;;;;;6.00;4.47;;;18.50;24.60;;;;;;5148426;27;46660;-22
2022/03/09 09:06:30;;;;;;;5.57;4.90;;;18.60;24.70;;;;;;5148273;27;47940;-22
2022/03/09 09:08:56;;;;;;;4.88;4.40;;;18.60;24.70;;;;;;5146992;27;47025;-21
2022/03/09 09:11:23;;;;;;;5.50;4.85;;;18.60;24.70;;;;;;5129790;27;46849;-22
2022/03/09 09:13:50;;;;;;;5.22;4.65;;;18.60;24.70;;;;;;5146946;27;47302;-22
2022/03/09 09:16:18;;;;;;;6.10;4.88;;;18.60;24.70;;;;;;5147974;27;47095;-16
2022/03/09 09:18:45;;;;;;;6.25;4.95;;;18.60;24.70;;;;;;5148822;27;46799;-16
2022/03/09 09:21:11;;;;;;;5.53;4.82;;;18.60;24.70;;;;;;5147841;27;47244;-15
2022/03/09 09:23:39;;;;;;;6.00;5.00;;;18.70;24.70;;;;;;5148550;27;46998;-15
2022/03/09 09:26:06;;;;;;;5.80;5.20;;;18.70;24.70;;;;;;5148501;27;48921;-15
2022/03/09 09:28:32;;;;;;;6.38;4.82;;;18.70;24.70;;;;;;5148529;27;47024;-17
2022/03/09 09:30:59;;;;;;;5.78;4.75;;;18.70;24.70;;;;;;5148477;27;47174;-15
2022/03/09 09:33:27;;;;;;;5.78;5.03;;;18.70;24.80;;;;;;5149008;27;46967;-16
2022/03/09 09:35:54;;;;;;;6.50;5.22;;;18.80;24.80;;;;;;5148446;27;47733;-16
2022/03/09 09:38:20;;;;;;;5.57;5.03;;;18.80;24.80;;;;;;5148747;27;46907;-16
2022/03/09 09:40:47;;;;;;;6.20;4.93;;;18.80;24.70;;;;;;5148649;27;46844;-13
2022/03/09 09:43:14;;;;;;;6.93;5.20;;;18.80;24.70;;;;;;5148981;27;47224;-13
2022/03/09 09:45:41;;;;;;;6.07;4.93;;;18.80;24.70;;;;;;5148266;27;48118;-14
2022/03/09 09:48:08;;;;;;;6.30;4.75;;;18.80;24.80;;;;;;5148573;27;46837;-13
2022/03/09 09:50:36;;;;;;;5.25;4.60;;;18.80;24.80;;;;;;5148092;27;46930;-13
2022/03/09 09:53:05;;;;;;;6.45;5.13;;;18.80;24.90;;;;;;5150165;27;47127;-14
2022/03/09 09:55:39;;;;;;;5.65;4.88;;;18.90;24.80;;;;;;5150037;27;48043;-14
2022/03/09 09:58:06;;;;;;;5.85;4.90;;;18.90;24.80;;;;;;5149366;27;46744;-20
2022/03/09 10:00:33;;;;;;;5.78;4.85;;;19.00;24.90;;;;;;5148393;27;46926;-19
2022/03/09 10:03:00;;;;;;;6.47;5.38;;;18.90;24.80;;;;;;5148710;27;47033;-19
2022/03/09 10:05:27;;;;;;;5.90;5.28;;;19.00;24.90;;;;;;5147725;27;47835;-19
2022/03/09 10:08:10;;;;;;;6.25;5.45;;;19.00;24.90;;;;;;5148292;27;46918;-19
2022/03/09 10:10:38;;;;;;;6.43;4.80;;;19.10;24.90;;;;;;5147651;27;47495;-20
2022/03/09 10:13:15;;;;;;;7.38;5.43;;;19.10;24.80;;;;;;5148410;27;46861;-18
2022/03/09 10:15:43;;;;;;;6.53;5.40;;;19.10;24.80;;;;;;5147343;27;48996;-21
2022/03/09 10:18:17;;;;;;;7.07;5.03;;;19.10;24.80;;;;;;5147436;27;47313;-20
2022/03/09 10:20:44;;;;;;;7.28;5.22;;;19.10;24.80;;;;;;5147505;27;46995;-21
2022/03/09 10:23:12;;;;;;;4.90;4.43;;;19.20;24.90;;;;;;5146959;27;46999;-14
2022/03/09 10:25:40;;;;;;;6.13;5.00;;;19.20;25.00;;;;;;5153165;27;47964;-15
2022/03/09 10:28:08;;;;;;;6.47;4.78;;;19.30;24.90;;;;;;5148290;27;47084;-15
2022/03/09 10:30:37;;;;;;;7.05;5.70;;;19.30;25.30;;;;;;5147175;27;46966;-15
2022/03/09 10:33:04;;;;;;;5.47;4.80;;;19.30;24.70;;;;;;5146533;27;46921;-15
2022/03/09 10:35:41;;;;;;;5.60;4.45;;;19.30;24.80;;;;;;5145498;27;47028;-15
2022/03/09 10:38:08;;;;;;;7.20;5.07;;;19.40;24.80;;;;;;5147601;27;47180;-15
2022/03/09 10:40:41;;;;;;;5.70;5.10;;;19.40;24.90;;;;;;5147234;27;46860;-15
2022/03/09 10:43:12;;;;;;;5.82;5.22;;;19.40;24.90;;;;;;5147800;27;47254;-15
2022/03/09 10:45:55;;;;;;;5.25;4.75;;;19.50;24.90;;;;;;5147154;27;48776;-15
2022/03/09 10:48:22;;;;;;;5.55;4.95;;;19.50;24.90;;;;;;5147176;27;46801;-15
2022/03/09 10:50:51;;;;;;;5.57;4.93;;;19.60;24.70;;;;;;5147133;27;47068;-15
2022/03/09 10:53:18;;;;;;;4.93;4.35;;;19.60;24.80;;;;;;5146747;27;46990;-15
2022/03/09 10:55:46;;;;;;;4.75;4.03;;;19.60;24.80;;;;;;5146973;27;47911;-15
2022/03/09 10:58:13;;;;;;;5.13;4.63;;;19.70;24.90;;;;;;5147372;27;47462;-14
2022/03/09 11:00:42;;;;;;;5.18;4.40;;;19.70;24.90;;;;;;5146922;27;46849;-15
2022/03/09 11:03:10;;;;;;;5.60;4.20;;;19.70;24.90;;;;;;5147417;27;46894;-15
2022/03/09 11:05:37;;;;;;;5.43;4.90;;;19.80;24.80;;;;;;5147237;27;46952;-15
2022/03/09 11:08:04;;;;;;;5.20;4.70;;;19.90;24.80;;;;;;5147921;27;46853;-15
2022/03/09 11:10:31;;;;;;;5.35;4.57;;;20.00;24.80;;;;;;5150771;27;46751;-15
2022/03/09 11:12:59;;;;;;;5.68;4.60;;;20.00;24.70;;;;;;5151388;27;46911;-14
2022/03/09 11:15:26;;;;;;;6.97;5.13;;;20.10;24.80;;;;;;5150754;27;47094;-14
2022/03/09 11:17:54;;;;;;;5.90;4.90;;;20.10;24.70;;;;;;5150726;27;46834;-14
2022/03/09 11:20:21;;;;;;;6.50;4.88;;;20.10;24.70;;;;;;5150524;27;47017;-15
2022/03/09 11:22:47;;;;;;;5.57;4.25;;;20.20;24.70;;;;;;5150898;27;47258;-14
2022/03/09 11:25:14;;;;;;;6.05;4.75;;;20.20;24.60;;;;;;5149573;27;47987;-15
2022/03/09 11:27:46;;;;;;;8.02;4.93;;;20.30;24.60;;;;;;5150661;27;46825;-15
2022/03/09 11:30:24;;;;;;;5.47;4.60;;;20.40;24.60;;;;;;5150575;27;46966;-15
2022/03/09 11:32:51;;;;;;;6.40;4.70;;;20.40;24.50;;;;;;5149858;27;47058;-16
2022/03/09 11:35:38;;;;;;;5.95;4.60;;;20.50;24.50;;;;;;5150544;27;47957;-15
2022/03/09 11:38:41;;;;;;;5.22;4.43;;;20.60;24.20;;;;;;5150674;27;46918;-15
2022/03/09 11:41:18;;;;;;;5.80;4.32;;;20.60;24.40;;;;;;5146698;27;47033;-15
2022/03/09 11:43:45;;;;;;;5.75;5.15;;;20.70;24.60;;;;;;5148733;27;47077;-15
2022/03/09 11:46:13;;;;;;;5.25;4.60;;;20.80;24.50;;;;;;5150137;27;49084;-14
2022/03/09 11:49:00;;;;;;;4.82;4.38;;;20.80;24.50;;;;;;5150540;27;47354;-14
2022/03/09 11:51:27;;;;;;;6.88;4.53;;;20.90;24.50;;;;;;5143539;27;46917;-15
2022/03/09 11:53:56;;;;;;;5.28;4.45;;;21.00;24.40;;;;;;5150151;27;47075;-20
2022/03/09 11:56:28;;;;;;;4.90;4.40;;;21.00;24.40;;;;;;5148288;27;48022;-22
2022/03/09 11:59:08;;;;;;;6.18;4.88;;;21.00;24.30;;;;;;5148135;27;46868;-15
2022/03/09 12:02:03;;;;;;;4.72;4.28;;;21.10;24.40;;;;;;5152961;27;46995;-21
2022/03/09 12:04:49;;;;;;;4.95;4.45;;;21.10;24.30;;;;;;5143211;27;46882;-21
2022/03/09 12:07:58;;;;;;;5.10;4.60;;;21.20;24.40;;;;;;5155329;27;47865;-21
2022/03/09 12:10:53;;;;;;;4.82;4.32;;;21.20;24.40;;;;;;5142544;27;47202;-21
2022/03/09 12:13:45;;;;;;;5.40;4.35;;;21.30;24.40;;;;;;5149889;27;46813;-20
2022/03/09 12:16:16;;;;;;;6.35;4.90;;;21.40;24.30;;;;;;5145124;27;47024;-21
2022/03/09 12:18:46;;;;;;;6.22;4.90;;;21.50;24.30;;;;;;5148564;27;48184;-20
2022/03/09 12:21:13;;;;;;;5.22;4.72;;;21.50;24.30;;;;;;5149352;27;47071;-20
2022/03/09 12:24:26;;;;;;;5.22;4.53;;;21.50;24.30;;;;;;5148589;27;46884;-21
2022/03/09 12:26:54;;;;;;;6.38;4.53;;;21.50;24.30;;;;;;5149789;27;46945;-20
2022/03/09 12:29:39;;;;;;;4.93;4.43;;;21.60;24.40;;;;;;5149489;27;47966;-21
2022/03/09 12:32:11;;;;;;;5.65;5.13;;;21.60;24.40;;;;;;5149507;27;46894;-20
2022/03/09 12:34:41;;;;;;;5.20;4.70;;;21.70;24.40;;;;;;5149733;27;46988;-20
2022/03/09 12:37:09;;;;;;;5.03;4.53;;;21.80;24.40;;;;;;5150045;27;46969;-21
2022/03/09 12:39:36;;;;;;;4.78;4.32;;;21.80;24.20;;;;;;5149319;27;47934;-21
2022/03/09 12:42:04;;;;;;;5.50;4.55;;;21.90;24.30;;;;;;5149203;27;46832;-20
2022/03/09 12:44:31;;;;;;;5.82;4.70;;;21.90;24.20;;;;;;5149147;27;46986;-20
2022/03/09 12:47:03;;;;;;;5.03;4.53;;;22.00;24.20;;;;;;5149118;27;47363;-20
2022/03/09 12:49:34;;;;;;;5.28;4.70;;;22.00;24.20;;;;;;5149617;27;47030;-21
2022/03/09 12:52:08;;;;;;;5.05;4.55;;;22.00;24.30;;;;;;5147518;27;46973;-21
2022/03/09 12:54:42;;;;;;;5.03;4.32;;;22.10;24.20;;;;;;5146728;27;46967;-21